createdAt,value
2022-10-26T00:01:59.922Z,20.67
2022-10-26T00:04:26.593Z,20.61
2022-10-26T00:06:52.787Z,20.58
2022-10-26T00:09:19.025Z,20.53
2022-10-26T00:11:45.258Z,20.47
2022-10-26T00:14:11.621Z,20.42
2022-10-26T00:16:37.983Z,20.39
2022-10-26T00:19:04.391Z,20.26
2022-10-26T00:21:30.601Z,20.30
2022-10-26T00:23:56.798Z,20.27
2022-10-26T00:26:23.064Z,20.24
2022-10-26T00:28:49.480Z,20.19
2022-10-26T00:31:15.712Z,20.16
2022-10-26T00:33:44.282Z,20.12
2022-10-26T00:36:10.504Z,20.08
2022-10-26T00:38:36.791Z,20.05
2022-10-26T00:41:03.017Z,20.03
2022-10-26T00:43:29.222Z,20.00
2022-10-26T00:45:55.428Z,19.97
2022-10-26T00:48:21.662Z,19.95
2022-10-26T00:50:48.193Z,19.92
2022-10-26T00:53:14.470Z,19.90
2022-10-26T00:55:40.677Z,19.88
2022-10-26T00:58:07.317Z,19.85
2022-10-26T01:00:33.528Z,19.82
2022-10-26T01:02:59.772Z,19.78
2022-10-26T01:05:26.019Z,19.76
2022-10-26T01:07:52.391Z,19.75
2022-10-26T01:10:18.814Z,19.71
2022-10-26T01:12:45.079Z,19.69
2022-10-26T01:15:11.895Z,19.67
2022-10-26T01:17:38.396Z,19.64
2022-10-26T01:20:04.580Z,19.62
2022-10-26T01:22:30.822Z,19.59
2022-10-26T01:24:57.417Z,19.56
2022-10-26T01:27:23.655Z,19.54
2022-10-26T01:29:49.854Z,19.50
2022-10-26T01:32:16.489Z,19.50
2022-10-26T01:34:43.635Z,19.47
2022-10-26T01:37:09.848Z,19.44
2022-10-26T01:39:36.317Z,19.41
2022-10-26T01:42:03.556Z,19.40
2022-10-26T01:44:29.788Z,19.37
2022-10-26T01:46:56.526Z,19.36
2022-10-26T01:49:22.757Z,19.33
2022-10-26T01:51:48.991Z,19.32
2022-10-26T01:54:15.336Z,19.30
2022-10-26T01:56:41.639Z,19.25
2022-10-26T01:59:07.862Z,19.17
2022-10-26T02:01:34.282Z,19.21
2022-10-26T02:04:01.129Z,19.18
2022-10-26T02:06:27.380Z,19.15
2022-10-26T02:08:53.758Z,19.13
2022-10-26T02:11:19.936Z,19.12
2022-10-26T02:13:46.318Z,19.08
2022-10-26T02:16:12.704Z,19.04
2022-10-26T02:18:39.494Z,19.02
2022-10-26T02:21:05.691Z,18.99
2022-10-26T02:23:31.902Z,18.96
2022-10-26T02:25:58.309Z,18.93
2022-10-26T02:28:24.517Z,18.91
2022-10-26T02:30:50.870Z,18.89
2022-10-26T02:33:17.085Z,18.85
2022-10-26T02:35:44.722Z,18.82
2022-10-26T02:38:10.949Z,18.80
2022-10-26T02:40:37.138Z,18.78
2022-10-26T02:43:03.430Z,18.75
2022-10-26T02:45:29.631Z,18.74
2022-10-26T02:47:55.882Z,18.72
2022-10-26T02:50:22.220Z,18.68
2022-10-26T02:52:48.686Z,18.65
2022-10-26T02:55:15.091Z,18.63
2022-10-26T02:57:42.370Z,18.60
2022-10-26T03:00:08.692Z,18.59
2022-10-26T03:02:34.901Z,18.56
2022-10-26T03:05:01.540Z,18.53
2022-10-26T03:07:27.776Z,18.52
2022-10-26T03:09:54.113Z,18.50
2022-10-26T03:12:20.386Z,18.49
2022-10-26T03:14:46.631Z,18.47
2022-10-26T03:17:13.201Z,18.44
2022-10-26T03:19:39.531Z,18.43
2022-10-26T03:22:05.786Z,18.41
2022-10-26T03:24:32.031Z,18.38
2022-10-26T03:27:02.169Z,18.37
2022-10-26T03:29:28.815Z,18.35
2022-10-26T03:31:55.507Z,18.32
2022-10-26T03:34:21.719Z,18.29
2022-10-26T03:36:47.965Z,18.27
2022-10-26T03:39:14.223Z,18.25
2022-10-26T03:41:40.483Z,18.23
2022-10-26T03:44:06.733Z,18.21
2022-10-26T03:46:32.934Z,18.21
2022-10-26T03:48:59.304Z,18.19
2022-10-26T03:51:25.737Z,18.18
2022-10-26T03:53:51.975Z,18.15
2022-10-26T03:56:18.170Z,18.15
2022-10-26T03:58:44.500Z,18.15
2022-10-26T04:01:10.785Z,18.19
2022-10-26T04:03:37.117Z,18.20
2022-10-26T04:06:03.489Z,18.19
2022-10-26T04:08:29.704Z,18.16
2022-10-26T04:10:59.867Z,18.14
2022-10-26T04:13:28.758Z,18.11
2022-10-26T04:15:54.960Z,18.08
2022-10-26T04:18:21.166Z,18.05
2022-10-26T04:20:47.519Z,18.02
2022-10-26T04:23:13.852Z,17.99
2022-10-26T04:25:40.110Z,17.96
2022-10-26T04:28:06.363Z,17.94
2022-10-26T04:30:32.580Z,17.91
2022-10-26T04:33:00.048Z,17.89
2022-10-26T04:35:26.480Z,17.71
2022-10-26T04:37:53.079Z,17.85
2022-10-26T04:40:19.320Z,17.83
2022-10-26T04:42:46.254Z,17.82
2022-10-26T04:45:12.754Z,17.78
2022-10-26T04:47:39.857Z,17.77
2022-10-26T04:50:06.062Z,17.75
2022-10-26T04:52:32.294Z,17.73
2022-10-26T04:54:58.522Z,17.70
2022-10-26T04:57:24.793Z,17.69
2022-10-26T04:59:52.305Z,17.67
2022-10-26T05:02:18.607Z,17.66
2022-10-26T05:04:44.940Z,17.65
2022-10-26T05:07:11.194Z,17.64
2022-10-26T05:09:37.454Z,17.62
2022-10-26T05:12:03.700Z,17.61
2022-10-26T05:14:29.968Z,17.59
2022-10-26T05:16:56.249Z,17.57
2022-10-26T05:19:22.473Z,17.56
2022-10-26T05:21:48.730Z,17.56
2022-10-26T05:24:15.100Z,17.55
2022-10-26T05:26:41.327Z,17.53
2022-10-26T05:29:07.601Z,17.52
2022-10-26T05:31:33.816Z,17.51
2022-10-26T05:34:00.050Z,17.51
2022-10-26T05:36:26.678Z,17.49
2022-10-26T05:38:52.965Z,17.49
2022-10-26T05:41:19.612Z,17.49
2022-10-26T05:43:45.807Z,17.48
2022-10-26T05:46:12.004Z,17.46
2022-10-26T05:48:38.471Z,17.46
2022-10-26T05:51:04.694Z,17.45
2022-10-26T05:53:31.023Z,17.44
2022-10-26T05:55:57.729Z,17.43
2022-10-26T05:58:23.892Z,17.27
2022-10-26T06:00:50.122Z,17.41
2022-10-26T06:03:16.351Z,17.40
2022-10-26T06:05:42.590Z,17.45
2022-10-26T06:08:08.897Z,17.58
2022-10-26T06:10:35.223Z,17.72
2022-10-26T06:13:01.480Z,17.83
2022-10-26T06:15:27.827Z,17.94
2022-10-26T06:17:54.087Z,18.05
2022-10-26T06:20:21.581Z,18.12
2022-10-26T06:22:48.075Z,18.18
2022-10-26T06:25:14.601Z,18.25
2022-10-26T06:27:40.846Z,18.28
2022-10-26T06:30:07.400Z,18.35
2022-10-26T06:32:33.797Z,18.39
2022-10-26T06:35:02.684Z,18.42
2022-10-26T06:39:59.562Z,18.50
2022-10-26T06:42:25.848Z,18.52
2022-10-26T06:44:52.765Z,18.54
2022-10-26T06:47:21.298Z,18.58
2022-10-26T06:49:49.909Z,18.59
2022-10-26T06:52:16.196Z,18.63
2022-10-26T06:54:42.473Z,18.64
2022-10-26T06:57:08.727Z,18.67
2022-10-26T06:59:34.936Z,18.69
2022-10-26T07:02:04.214Z,18.74
2022-10-26T07:04:33.490Z,18.77
2022-10-26T07:07:00.932Z,18.80
2022-10-26T07:09:27.577Z,18.82
2022-10-26T07:11:53.889Z,18.86
2022-10-26T07:14:20.148Z,18.87
2022-10-26T07:16:46.380Z,18.91
2022-10-26T07:19:12.682Z,18.93
2022-10-26T07:21:38.942Z,18.95
2022-10-26T07:24:05.213Z,18.96
2022-10-26T07:26:31.517Z,18.97
2022-10-26T07:28:58.552Z,18.99
2022-10-26T07:31:27.070Z,18.99
2022-10-26T07:33:56.930Z,19.02
2022-10-26T07:36:23.341Z,19.05
2022-10-26T07:38:49.673Z,19.06
2022-10-26T07:41:18.192Z,19.08
2022-10-26T07:43:47.016Z,19.09
2022-10-26T07:46:13.295Z,19.12
2022-10-26T07:48:41.030Z,19.17
2022-10-26T07:51:08.407Z,19.19
2022-10-26T07:53:39.255Z,19.22
2022-10-26T07:56:05.566Z,19.24
2022-10-26T07:58:31.834Z,19.27
2022-10-26T08:00:58.514Z,19.30
2022-10-26T08:03:25.566Z,19.35
2022-10-26T08:05:51.751Z,19.38
2022-10-26T08:08:20.071Z,19.42
2022-10-26T08:10:46.382Z,19.43
2022-10-26T08:13:12.766Z,19.45
2022-10-26T08:15:38.991Z,19.46
2022-10-26T08:18:05.251Z,19.47
2022-10-26T08:20:35.330Z,19.47
2022-10-26T08:23:02.291Z,19.47
2022-10-26T08:25:28.609Z,19.50
2022-10-26T08:27:54.957Z,19.52
2022-10-26T08:30:21.238Z,19.54
2022-10-26T08:32:48.152Z,19.54
2022-10-26T08:35:19.296Z,19.56
2022-10-26T08:37:45.575Z,19.57
2022-10-26T08:40:11.792Z,19.58
2022-10-26T08:42:39.475Z,19.57
2022-10-26T08:45:06.792Z,19.60
2022-10-26T08:47:33.113Z,19.61
2022-10-26T08:49:59.452Z,19.62
2022-10-26T08:52:25.777Z,19.63
2022-10-26T08:54:52.026Z,19.64
2022-10-26T08:57:19.471Z,19.64
2022-10-26T08:59:47.841Z,19.67
2022-10-26T09:02:14.205Z,19.69
2022-10-26T09:04:40.533Z,19.69
2022-10-26T09:07:06.941Z,19.71
2022-10-26T09:09:35.730Z,19.71
2022-10-26T09:12:02.200Z,19.72
2022-10-26T09:14:28.442Z,19.73
2022-10-26T09:16:55.086Z,19.75
2022-10-26T09:19:25.235Z,19.76
2022-10-26T09:21:56.009Z,19.77
2022-10-26T09:24:24.868Z,19.78
2022-10-26T09:26:52.445Z,19.80
2022-10-26T09:29:18.863Z,19.82
2022-10-26T09:31:46.201Z,19.84
2022-10-26T09:34:12.443Z,19.85
2022-10-26T09:36:46.376Z,19.87
2022-10-26T09:39:12.673Z,19.88
2022-10-26T09:41:39.027Z,19.89
2022-10-26T09:44:07.496Z,19.90
2022-10-26T09:46:35.160Z,19.91
2022-10-26T09:51:32.889Z,19.97
2022-10-26T09:53:59.481Z,19.99
2022-10-26T09:56:34.030Z,20.00
2022-10-26T09:59:00.288Z,20.04
2022-10-26T10:01:27.559Z,20.06
2022-10-26T10:03:53.944Z,20.07
2022-10-26T10:06:21.781Z,20.09
2022-10-26T10:08:50.356Z,20.11
2022-10-26T10:11:18.605Z,20.12
2022-10-26T10:13:44.895Z,20.13
2022-10-26T10:16:11.356Z,20.15
2022-10-26T10:18:46.334Z,20.15
2022-10-26T10:21:12.596Z,20.17
2022-10-26T10:23:42.375Z,20.19
2022-10-26T10:26:08.697Z,20.21
2022-10-26T10:28:35.675Z,20.23
2022-10-26T10:31:08.420Z,20.24
2022-10-26T10:33:34.788Z,20.25
2022-10-26T10:36:01.026Z,20.25
2022-10-26T10:38:27.306Z,20.27
2022-10-26T10:40:53.573Z,20.28
2022-10-26T10:43:19.884Z,20.30
2022-10-26T10:45:46.254Z,20.33
2022-10-26T10:48:12.503Z,20.38
2022-10-26T10:50:38.839Z,20.44
2022-10-26T10:53:05.195Z,20.52
2022-10-26T10:55:31.436Z,20.55
2022-10-26T10:57:57.689Z,20.58
2022-10-26T11:00:23.913Z,20.59
2022-10-26T11:02:50.220Z,20.62
2022-10-26T11:05:22.013Z,20.60
2022-10-26T11:07:51.420Z,20.61
2022-10-26T11:10:18.024Z,20.62
2022-10-26T11:12:45.674Z,20.64
2022-10-26T11:15:11.938Z,20.66
2022-10-26T11:17:39.940Z,20.68
2022-10-26T11:20:08.138Z,20.67
2022-10-26T11:22:36.276Z,20.68
2022-10-26T11:25:02.542Z,20.71
2022-10-26T11:27:31.068Z,20.75
2022-10-26T11:29:57.294Z,20.79
2022-10-26T11:32:26.017Z,20.82
2022-10-26T11:34:52.345Z,20.85
2022-10-26T11:37:20.852Z,20.91
2022-10-26T11:39:47.181Z,20.95
2022-10-26T11:42:13.467Z,20.94
2022-10-26T11:44:39.594Z,20.99
2022-10-26T11:47:05.938Z,21.07
2022-10-26T11:49:32.339Z,21.09
2022-10-26T11:51:58.634Z,21.14
2022-10-26T11:54:27.441Z,21.18
2022-10-26T11:56:53.875Z,21.22
2022-10-26T11:59:20.084Z,21.25
2022-10-26T12:01:48.855Z,21.29
2022-10-26T12:04:15.228Z,21.34
2022-10-26T12:06:41.581Z,21.31
2022-10-26T12:09:07.814Z,21.38
2022-10-26T12:11:34.105Z,21.41
2022-10-26T12:14:00.393Z,21.46
2022-10-26T12:16:26.646Z,21.49
2022-10-26T12:18:56.097Z,21.53
2022-10-26T12:21:23.144Z,21.57
2022-10-26T12:23:51.708Z,21.60
2022-10-26T12:26:18.011Z,21.63
2022-10-26T12:28:50.952Z,21.65
2022-10-26T12:31:20.128Z,21.69
2022-10-26T12:33:46.508Z,21.72
2022-10-26T12:36:14.895Z,21.73
2022-10-26T12:38:41.130Z,21.68
2022-10-26T12:41:07.351Z,21.67
2022-10-26T12:43:33.724Z,21.74
2022-10-26T12:46:01.133Z,21.80
2022-10-26T12:48:38.818Z,21.84
2022-10-26T12:51:08.289Z,21.87
2022-10-26T12:53:40.343Z,21.90
2022-10-26T12:56:16.438Z,21.93
2022-10-26T12:58:42.800Z,21.94
2022-10-26T13:01:09.053Z,21.96
2022-10-26T13:03:35.401Z,21.97
2022-10-26T13:06:01.723Z,21.99
2022-10-26T13:08:28.096Z,22.01
2022-10-26T13:10:54.436Z,22.04
2022-10-26T13:16:02.553Z,22.08
2022-10-26T13:18:28.891Z,22.09
2022-10-26T13:20:59.191Z,22.08
2022-10-26T13:23:26.599Z,22.06
2022-10-26T13:28:19.174Z,22.06
2022-10-26T13:30:47.474Z,22.06
2022-10-26T13:33:14.064Z,22.06
2022-10-26T13:35:40.490Z,22.06
2022-10-26T13:38:06.901Z,22.06
2022-10-26T13:40:34.563Z,22.05
2022-10-26T13:43:00.806Z,22.05
2022-10-26T13:45:27.813Z,22.04
2022-10-26T13:47:54.046Z,22.05
2022-10-26T13:50:21.527Z,22.05
2022-10-26T13:52:48.105Z,22.03
2022-10-26T13:55:14.630Z,22.03
2022-10-26T13:57:40.906Z,22.04
2022-10-26T14:00:07.327Z,22.04
2022-10-26T14:02:33.650Z,22.04
2022-10-26T14:05:03.698Z,22.04
2022-10-26T14:07:29.959Z,22.05
2022-10-26T14:09:56.902Z,22.04
2022-10-26T14:12:27.420Z,22.03
2022-10-26T14:14:53.710Z,22.02
2022-10-26T14:17:19.934Z,22.02
2022-10-26T14:19:46.450Z,22.01
2022-10-26T14:22:13.155Z,22.00
2022-10-26T14:24:47.728Z,21.99
2022-10-26T14:27:14.155Z,22.00
2022-10-26T14:29:40.539Z,21.99
2022-10-26T14:32:06.938Z,21.99
2022-10-26T14:34:33.251Z,21.97
2022-10-26T14:36:59.464Z,21.98
2022-10-26T14:39:25.789Z,21.97
2022-10-26T14:41:52.088Z,21.97
2022-10-26T14:44:18.448Z,21.97
2022-10-26T14:46:44.687Z,21.97
2022-10-26T14:49:11.041Z,21.96
2022-10-26T14:51:37.305Z,21.96
2022-10-26T14:54:03.558Z,21.95
2022-10-26T14:56:29.838Z,21.94
2022-10-26T14:58:56.037Z,21.93
2022-10-26T15:01:22.530Z,21.92
2022-10-26T15:03:50.074Z,21.91
2022-10-26T15:06:16.581Z,21.91
2022-10-26T15:08:56.167Z,21.89
2022-10-26T15:11:23.043Z,21.89
2022-10-26T15:13:49.248Z,21.89
2022-10-26T15:16:17.625Z,21.87
2022-10-26T15:18:44.000Z,21.86
2022-10-26T15:21:10.342Z,21.83
2022-10-26T15:23:36.853Z,21.83
2022-10-26T15:26:03.185Z,21.82
2022-10-26T15:28:30.076Z,21.81
2022-10-26T15:30:58.652Z,21.80
2022-10-26T15:33:27.211Z,21.78
2022-10-26T15:35:53.444Z,21.76
2022-10-26T15:38:19.658Z,21.76
2022-10-26T15:40:46.184Z,21.74
2022-10-26T15:43:13.529Z,21.73
2022-10-26T15:45:40.805Z,21.72
2022-10-26T15:48:07.433Z,21.71
2022-10-26T15:50:35.591Z,21.70
2022-10-26T15:53:04.028Z,21.70
2022-10-26T15:55:32.398Z,21.69
2022-10-26T15:57:58.691Z,21.68
2022-10-26T16:00:24.969Z,21.67
2022-10-26T16:02:51.180Z,21.66
2022-10-26T16:05:17.705Z,21.64
2022-10-26T16:07:44.248Z,21.62
2022-10-26T16:10:10.618Z,21.62
2022-10-26T16:12:36.885Z,21.62
2022-10-26T16:15:05.801Z,21.61
2022-10-26T16:17:32.560Z,21.59
2022-10-26T16:19:58.867Z,21.59
2022-10-26T16:22:25.070Z,21.58
2022-10-26T16:24:51.377Z,21.57
2022-10-26T16:27:17.699Z,21.55
2022-10-26T16:29:44.140Z,21.55
2022-10-26T16:32:10.524Z,21.54
2022-10-26T16:34:36.726Z,21.52
2022-10-26T16:37:02.939Z,21.53
2022-10-26T16:39:29.158Z,21.52
2022-10-26T16:41:55.811Z,21.51
2022-10-26T16:44:22.124Z,21.50
2022-10-26T16:46:48.367Z,21.49
2022-10-26T16:49:14.622Z,21.48
2022-10-26T16:51:40.857Z,21.46
2022-10-26T16:54:07.109Z,21.46
2022-10-26T16:56:33.349Z,21.43
2022-10-26T16:59:00.005Z,21.42
2022-10-26T17:01:27.224Z,21.42
2022-10-26T17:03:53.839Z,21.40
2022-10-26T17:06:21.441Z,21.39
2022-10-26T17:08:47.997Z,21.37
2022-10-26T17:11:14.479Z,21.37
2022-10-26T17:13:40.832Z,21.35
2022-10-26T17:16:07.108Z,21.34
2022-10-26T17:18:34.484Z,21.32
2022-10-26T17:21:00.713Z,21.30
2022-10-26T17:23:26.923Z,21.29
2022-10-26T17:25:53.227Z,21.29
2022-10-26T17:28:20.403Z,21.27
2022-10-26T17:30:47.236Z,21.27
2022-10-26T17:33:16.518Z,21.25
2022-10-26T17:35:43.502Z,21.24
2022-10-26T17:38:09.774Z,21.23
2022-10-26T17:40:36.058Z,21.22
2022-10-26T17:43:02.314Z,21.20
2022-10-26T17:45:28.587Z,21.20
2022-10-26T17:47:56.241Z,21.17
2022-10-26T17:50:22.569Z,21.17
2022-10-26T17:52:49.493Z,21.17
2022-10-26T17:55:16.416Z,21.15
2022-10-26T17:57:42.760Z,21.14
2022-10-26T18:00:09.032Z,21.13
2022-10-26T18:02:35.775Z,21.11
2022-10-26T18:05:05.129Z,21.10
2022-10-26T18:07:33.006Z,21.09
2022-10-26T18:10:13.516Z,21.08
2022-10-26T18:12:45.613Z,21.08
2022-10-26T18:15:11.889Z,21.07
2022-10-26T18:17:38.156Z,21.07
2022-10-26T18:20:04.812Z,21.07
2022-10-26T18:22:31.091Z,21.06
2022-10-26T18:24:57.360Z,21.06
2022-10-26T18:27:23.589Z,21.07
2022-10-26T18:29:49.815Z,21.06
2022-10-26T18:32:16.070Z,21.06
2022-10-26T18:34:42.663Z,21.05
2022-10-26T18:37:08.978Z,21.05
2022-10-26T18:39:35.309Z,21.03
2022-10-26T18:42:01.718Z,21.03
2022-10-26T18:44:28.225Z,21.02
2022-10-26T18:46:54.521Z,21.03
2022-10-26T18:49:21.054Z,21.01
2022-10-26T18:51:47.270Z,21.01
2022-10-26T18:54:13.602Z,21.00
2022-10-26T18:56:44.504Z,21.00
2022-10-26T18:59:10.866Z,20.99
2022-10-26T19:01:40.529Z,20.97
2022-10-26T19:04:11.764Z,20.98
2022-10-26T19:06:38.014Z,20.96
2022-10-26T19:09:04.325Z,20.95
2022-10-26T19:11:30.651Z,20.95
2022-10-26T19:13:56.966Z,20.95
2022-10-26T19:16:43.935Z,20.92
2022-10-26T19:19:10.343Z,20.93
2022-10-26T19:21:37.054Z,20.92
2022-10-26T19:24:14.142Z,20.92
2022-10-26T19:26:43.545Z,20.89
2022-10-26T19:29:10.433Z,20.88
2022-10-26T19:31:37.260Z,20.88
2022-10-26T19:34:03.576Z,20.87
2022-10-26T19:36:29.845Z,20.85
2022-10-26T19:38:56.514Z,20.85
2022-10-26T19:41:22.766Z,20.84
2022-10-26T19:43:49.040Z,20.84
2022-10-26T19:46:15.279Z,20.84
2022-10-26T19:48:41.548Z,20.83
2022-10-26T19:51:07.798Z,20.83
2022-10-26T19:53:34.449Z,20.82
2022-10-26T19:56:00.619Z,20.82
2022-10-26T19:58:26.941Z,20.81
2022-10-26T20:03:19.484Z,20.78
2022-10-26T20:05:45.743Z,20.78
2022-10-26T20:08:11.996Z,20.78
2022-10-26T20:10:38.276Z,20.77
2022-10-26T20:13:04.623Z,20.76
2022-10-26T20:15:30.903Z,20.76
2022-10-26T20:17:57.196Z,20.76
2022-10-26T20:20:23.443Z,20.76
2022-10-26T20:22:52.199Z,20.76
2022-10-26T20:25:18.864Z,20.75
2022-10-26T20:27:45.209Z,20.74
2022-10-26T20:30:11.765Z,20.73
2022-10-26T20:32:38.035Z,20.73
2022-10-26T20:35:04.579Z,20.73
2022-10-26T20:37:31.528Z,20.72
2022-10-26T20:39:57.777Z,20.71
2022-10-26T20:42:24.003Z,20.72
2022-10-26T20:44:50.202Z,20.71
2022-10-26T20:47:16.416Z,20.70
2022-10-26T20:49:43.097Z,20.70
2022-10-26T20:52:20.583Z,20.68
2022-10-26T20:54:47.509Z,20.68
2022-10-26T20:57:13.827Z,20.67
2022-10-26T20:59:41.124Z,20.67
2022-10-26T21:02:08.407Z,20.66
2022-10-26T21:04:34.651Z,20.66
2022-10-26T21:07:03.016Z,20.65
2022-10-26T21:09:31.804Z,20.64
2022-10-26T21:12:02.280Z,20.64
2022-10-26T21:14:28.678Z,20.64
2022-10-26T21:16:55.415Z,20.63
2022-10-26T21:19:24.239Z,20.63
2022-10-26T21:21:50.775Z,20.62
2022-10-26T21:24:17.532Z,20.61
2022-10-26T21:26:45.303Z,20.61
2022-10-26T21:29:11.581Z,20.60
2022-10-26T21:31:37.862Z,20.59
2022-10-26T21:34:04.115Z,20.58
2022-10-26T21:36:30.433Z,20.58
2022-10-26T21:38:56.628Z,20.57
2022-10-26T21:43:49.487Z,20.56
2022-10-26T21:46:15.876Z,20.56
2022-10-26T21:48:42.185Z,20.56
2022-10-26T21:51:09.437Z,20.54
2022-10-26T21:53:35.915Z,20.54
2022-10-26T21:56:02.151Z,20.53
2022-10-26T21:58:28.346Z,20.52
2022-10-26T22:00:55.067Z,20.53
2022-10-26T22:03:21.352Z,20.52
2022-10-26T22:05:47.680Z,20.51
2022-10-26T22:08:13.902Z,20.50
2022-10-26T22:10:40.093Z,20.47
2022-10-26T22:13:07.418Z,20.45
2022-10-26T22:15:33.680Z,20.42
2022-10-26T22:17:59.874Z,20.38
2022-10-26T22:20:26.073Z,20.36
2022-10-26T22:22:52.426Z,20.33
2022-10-26T22:25:18.654Z,20.31
2022-10-26T22:27:44.956Z,20.28
2022-10-26T22:30:11.155Z,20.26
2022-10-26T22:32:37.896Z,20.24
2022-10-26T22:35:11.195Z,20.22
2022-10-26T22:37:50.330Z,20.19
2022-10-26T22:40:16.775Z,20.17
2022-10-26T22:42:43.012Z,20.14
2022-10-26T22:45:09.335Z,20.11
2022-10-26T22:47:35.586Z,20.08
2022-10-26T22:50:02.166Z,20.05
2022-10-26T22:52:28.365Z,20.03
2022-10-26T22:54:54.604Z,19.86
2022-10-26T22:57:20.882Z,19.99
2022-10-26T22:59:47.204Z,19.97
2022-10-26T23:02:14.480Z,19.95
2022-10-26T23:04:40.807Z,19.94
2022-10-26T23:07:07.130Z,19.92
2022-10-26T23:09:33.344Z,19.90
2022-10-26T23:11:59.749Z,19.89
2022-10-26T23:14:26.039Z,19.88
2022-10-26T23:16:52.305Z,19.87
2022-10-26T23:19:18.872Z,19.86
2022-10-26T23:21:45.099Z,19.85
2022-10-26T23:24:11.286Z,19.84
2022-10-26T23:26:37.534Z,19.82
2022-10-26T23:29:04.109Z,19.80
2022-10-26T23:31:30.635Z,19.79
2022-10-26T23:33:56.998Z,19.78
2022-10-26T23:36:23.225Z,19.77
2022-10-26T23:38:49.714Z,19.76
2022-10-26T23:41:15.930Z,19.74
2022-10-26T23:43:42.164Z,19.73
2022-10-26T23:46:09.793Z,19.71
2022-10-26T23:48:35.986Z,19.70
2022-10-26T23:51:02.186Z,19.68
2022-10-26T23:53:28.386Z,19.67
2022-10-26T23:55:54.945Z,19.66
2022-10-26T23:58:21.203Z,19.65
